sensor_id;sensor_type;location;lat;lon;timestamp;temperature;humidity
21207;DHT22;10761;48.532;8.026;2023-08-24T00:02:02;20.30;1.00
21207;DHT22;10761;48.532;8.026;2023-08-24T00:04:28;20.30;1.00
21207;DHT22;10761;48.532;8.026;2023-08-24T00:06:54;20.20;1.00
21207;DHT22;10761;48.532;8.026;2023-08-24T00:09:20;20.20;1.00
21207;DHT22;10761;48.532;8.026;2023-08-24T00:11:46;20.20;1.00
21207;DHT22;10761;48.532;8.026;2023-08-24T00:14:11;20.20;1.00
21207;DHT22;10761;48.532;8.026;2023-08-24T00:16:37;20.10;1.00
21207;DHT22;10761;48.532;8.026;2023-08-24T00:19:03;20.10;1.00
21207;DHT22;10761;48.532;8.026;2023-08-24T00:21:28;20.00;1.00
21207;DHT22;10761;48.532;8.026;2023-08-24T00:23:54;19.90;1.00
21207;DHT22;10761;48.532;8.026;2023-08-24T00:26:20;19.80;1.00
21207;DHT22;10761;48.532;8.026;2023-08-24T00:28:46;19.90;1.00
21207;DHT22;10761;48.532;8.026;2023-08-24T00:31:11;19.90;1.00
21207;DHT22;10761;48.532;8.026;2023-08-24T00:33:37;19.80;1.00
21207;DHT22;10761;48.532;8.026;2023-08-24T00:36:03;19.90;1.00
21207;DHT22;10761;48.532;8.026;2023-08-24T00:38:29;19.90;1.00
21207;DHT22;10761;48.532;8.026;2023-08-24T00:40:55;19.90;1.00
21207;DHT22;10761;48.532;8.026;2023-08-24T00:43:21;20.00;1.00
21207;DHT22;10761;48.532;8.026;2023-08-24T00:45:53;20.00;1.00
21207;DHT22;10761;48.532;8.026;2023-08-24T00:48:21;20.00;1.00
21207;DHT22;10761;48.532;8.026;2023-08-24T00:50:52;20.00;1.00
21207;DHT22;10761;48.532;8.026;2023-08-24T00:53:17;19.90;1.00
21207;DHT22;10761;48.532;8.026;2023-08-24T00:55:44;19.80;1.00
21207;DHT22;10761;48.532;8.026;2023-08-24T00:58:10;19.90;1.00
21207;DHT22;10761;48.532;8.026;2023-08-24T01:00:36;19.90;1.00
21207;DHT22;10761;48.532;8.026;2023-08-24T01:03:03;19.80;1.00
21207;DHT22;10761;48.532;8.026;2023-08-24T01:05:28;19.80;1.00
21207;DHT22;10761;48.532;8.026;2023-08-24T01:07:54;19.80;1.00
21207;DHT22;10761;48.532;8.026;2023-08-24T01:10:20;19.80;1.00
21207;DHT22;10761;48.532;8.026;2023-08-24T01:13:02;19.80;1.00
21207;DHT22;10761;48.532;8.026;2023-08-24T01:15:38;19.80;1.00
21207;DHT22;10761;48.532;8.026;2023-08-24T01:18:13;19.80;1.00
21207;DHT22;10761;48.532;8.026;2023-08-24T01:20:41;19.80;1.00
21207;DHT22;10761;48.532;8.026;2023-08-24T01:25:52;19.80;1.00
21207;DHT22;10761;48.532;8.026;2023-08-24T01:28:22;19.80;1.00
21207;DHT22;10761;48.532;8.026;2023-08-24T01:30:48;19.80;1.00
21207;DHT22;10761;48.532;8.026;2023-08-24T01:33:14;19.90;1.00
21207;DHT22;10761;48.532;8.026;2023-08-24T01:35:41;19.90;1.00
21207;DHT22;10761;48.532;8.026;2023-08-24T01:38:07;19.90;1.00
21207;DHT22;10761;48.532;8.026;2023-08-24T01:40:50;19.90;1.00
21207;DHT22;10761;48.532;8.026;2023-08-24T01:43:19;20.00;1.00
21207;DHT22;10761;48.532;8.026;2023-08-24T01:45:46;20.10;1.00
21207;DHT22;10761;48.532;8.026;2023-08-24T01:48:13;20.10;1.00
21207;DHT22;10761;48.532;8.026;2023-08-24T01:50:39;20.10;1.00
21207;DHT22;10761;48.532;8.026;2023-08-24T01:53:06;20.10;1.00
21207;DHT22;10761;48.532;8.026;2023-08-24T01:55:31;20.10;1.00
21207;DHT22;10761;48.532;8.026;2023-08-24T01:57:58;20.00;1.00
21207;DHT22;10761;48.532;8.026;2023-08-24T02:00:23;20.00;1.00
21207;DHT22;10761;48.532;8.026;2023-08-24T02:02:49;19.90;1.00
21207;DHT22;10761;48.532;8.026;2023-08-24T02:05:15;19.90;34.90
21207;DHT22;10761;48.532;8.026;2023-08-24T02:07:40;19.80;19.20
21207;DHT22;10761;48.532;8.026;2023-08-24T02:10:06;19.70;12.70
21207;DHT22;10761;48.532;8.026;2023-08-24T02:12:32;19.70;59.20
21207;DHT22;10761;48.532;8.026;2023-08-24T02:14:58;19.60;53.90
21207;DHT22;10761;48.532;8.026;2023-08-24T02:17:23;19.70;57.60
21207;DHT22;10761;48.532;8.026;2023-08-24T02:19:49;19.60;89.40
21207;DHT22;10761;48.532;8.026;2023-08-24T02:22:15;19.60;79.40
21207;DHT22;10761;48.532;8.026;2023-08-24T02:24:41;19.50;60.20
21207;DHT22;10761;48.532;8.026;2023-08-24T02:27:06;19.50;99.90
21207;DHT22;10761;48.532;8.026;2023-08-24T02:29:32;19.50;99.90
21207;DHT22;10761;48.532;8.026;2023-08-24T02:31:58;19.50;99.90
21207;DHT22;10761;48.532;8.026;2023-08-24T02:34:23;19.40;99.90
21207;DHT22;10761;48.532;8.026;2023-08-24T02:36:49;19.40;99.90
21207;DHT22;10761;48.532;8.026;2023-08-24T02:39:14;19.40;99.90
21207;DHT22;10761;48.532;8.026;2023-08-24T02:41:40;19.40;99.90
21207;DHT22;10761;48.532;8.026;2023-08-24T02:44:05;19.50;99.90
21207;DHT22;10761;48.532;8.026;2023-08-24T02:46:31;19.60;99.90
21207;DHT22;10761;48.532;8.026;2023-08-24T02:48:57;19.60;99.90
21207;DHT22;10761;48.532;8.026;2023-08-24T02:51:23;19.70;99.90
21207;DHT22;10761;48.532;8.026;2023-08-24T02:53:49;19.70;99.90
21207;DHT22;10761;48.532;8.026;2023-08-24T02:56:15;19.80;99.90
21207;DHT22;10761;48.532;8.026;2023-08-24T02:58:41;19.90;99.90
21207;DHT22;10761;48.532;8.026;2023-08-24T03:01:07;19.90;99.90
21207;DHT22;10761;48.532;8.026;2023-08-24T03:03:37;19.80;65.50
21207;DHT22;10761;48.532;8.026;2023-08-24T03:06:07;19.80;58.30
21207;DHT22;10761;48.532;8.026;2023-08-24T03:08:34;19.80;94.10
21207;DHT22;10761;48.532;8.026;2023-08-24T03:11:01;19.80;99.90
21207;DHT22;10761;48.532;8.026;2023-08-24T03:13:28;19.70;99.90
21207;DHT22;10761;48.532;8.026;2023-08-24T03:15:54;19.70;89.30
21207;DHT22;10761;48.532;8.026;2023-08-24T03:18:20;19.70;99.90
21207;DHT22;10761;48.532;8.026;2023-08-24T03:20:46;19.60;99.90
21207;DHT22;10761;48.532;8.026;2023-08-24T03:23:12;19.50;99.90
21207;DHT22;10761;48.532;8.026;2023-08-24T03:25:40;19.30;99.90
21207;DHT22;10761;48.532;8.026;2023-08-24T03:28:06;19.20;99.90
21207;DHT22;10761;48.532;8.026;2023-08-24T03:30:35;19.20;99.90
21207;DHT22;10761;48.532;8.026;2023-08-24T03:33:00;19.20;99.90
21207;DHT22;10761;48.532;8.026;2023-08-24T03:35:28;19.10;99.90
21207;DHT22;10761;48.532;8.026;2023-08-24T03:37:53;19.10;99.90
21207;DHT22;10761;48.532;8.026;2023-08-24T03:40:19;19.00;99.90
21207;DHT22;10761;48.532;8.026;2023-08-24T03:42:45;19.10;99.90
21207;DHT22;10761;48.532;8.026;2023-08-24T03:45:11;19.10;99.90
21207;DHT22;10761;48.532;8.026;2023-08-24T03:47:36;19.10;99.90
21207;DHT22;10761;48.532;8.026;2023-08-24T03:50:02;19.00;99.90
21207;DHT22;10761;48.532;8.026;2023-08-24T03:52:28;19.10;99.90
21207;DHT22;10761;48.532;8.026;2023-08-24T03:54:53;19.10;99.90
21207;DHT22;10761;48.532;8.026;2023-08-24T03:57:19;19.20;99.90
21207;DHT22;10761;48.532;8.026;2023-08-24T03:59:44;19.20;99.90
21207;DHT22;10761;48.532;8.026;2023-08-24T04:02:10;19.20;99.90
21207;DHT22;10761;48.532;8.026;2023-08-24T04:04:35;19.20;99.90
21207;DHT22;10761;48.532;8.026;2023-08-24T04:07:01;19.20;99.90
21207;DHT22;10761;48.532;8.026;2023-08-24T04:09:28;19.20;99.90
21207;DHT22;10761;48.532;8.026;2023-08-24T04:11:54;19.20;99.90
21207;DHT22;10761;48.532;8.026;2023-08-24T04:14:19;19.20;99.90
21207;DHT22;10761;48.532;8.026;2023-08-24T04:16:45;19.10;99.90
21207;DHT22;10761;48.532;8.026;2023-08-24T04:19:11;19.10;99.90
21207;DHT22;10761;48.532;8.026;2023-08-24T04:21:36;19.10;99.90
21207;DHT22;10761;48.532;8.026;2023-08-24T04:24:02;19.00;99.90
21207;DHT22;10761;48.532;8.026;2023-08-24T04:26:27;19.00;99.90
21207;DHT22;10761;48.532;8.026;2023-08-24T04:28:53;19.00;99.90
21207;DHT22;10761;48.532;8.026;2023-08-24T04:31:19;18.90;99.90
21207;DHT22;10761;48.532;8.026;2023-08-24T04:33:44;18.90;99.90
21207;DHT22;10761;48.532;8.026;2023-08-24T04:36:10;18.90;99.90
21207;DHT22;10761;48.532;8.026;2023-08-24T04:38:35;18.90;99.90
21207;DHT22;10761;48.532;8.026;2023-08-24T04:41:02;18.80;99.90
21207;DHT22;10761;48.532;8.026;2023-08-24T04:43:33;18.70;99.90
21207;DHT22;10761;48.532;8.026;2023-08-24T04:45:58;18.60;99.90
21207;DHT22;10761;48.532;8.026;2023-08-24T04:48:25;18.60;99.90
21207;DHT22;10761;48.532;8.026;2023-08-24T04:50:52;18.70;99.90
21207;DHT22;10761;48.532;8.026;2023-08-24T04:53:19;18.70;99.90
21207;DHT22;10761;48.532;8.026;2023-08-24T04:55:45;18.70;99.90
21207;DHT22;10761;48.532;8.026;2023-08-24T04:58:12;18.80;99.90
21207;DHT22;10761;48.532;8.026;2023-08-24T05:00:39;18.90;99.90
21207;DHT22;10761;48.532;8.026;2023-08-24T05:03:05;18.90;99.90
21207;DHT22;10761;48.532;8.026;2023-08-24T05:05:32;19.00;99.90
21207;DHT22;10761;48.532;8.026;2023-08-24T05:08:00;19.00;99.90
21207;DHT22;10761;48.532;8.026;2023-08-24T05:10:30;19.00;99.90
21207;DHT22;10761;48.532;8.026;2023-08-24T05:12:55;19.00;99.90
21207;DHT22;10761;48.532;8.026;2023-08-24T05:15:21;19.10;99.90
21207;DHT22;10761;48.532;8.026;2023-08-24T05:17:47;19.10;99.90
21207;DHT22;10761;48.532;8.026;2023-08-24T05:20:12;19.10;99.90
21207;DHT22;10761;48.532;8.026;2023-08-24T05:22:39;19.20;99.90
21207;DHT22;10761;48.532;8.026;2023-08-24T05:25:05;19.30;99.90
21207;DHT22;10761;48.532;8.026;2023-08-24T05:27:31;19.40;99.90
21207;DHT22;10761;48.532;8.026;2023-08-24T05:29:57;19.50;99.90
21207;DHT22;10761;48.532;8.026;2023-08-24T05:32:23;19.50;99.90
21207;DHT22;10761;48.532;8.026;2023-08-24T05:34:48;19.50;99.90
21207;DHT22;10761;48.532;8.026;2023-08-24T05:37:14;19.50;99.90
21207;DHT22;10761;48.532;8.026;2023-08-24T05:39:39;19.50;99.90
21207;DHT22;10761;48.532;8.026;2023-08-24T05:42:05;19.50;99.90
21207;DHT22;10761;48.532;8.026;2023-08-24T05:44:31;19.50;99.90
21207;DHT22;10761;48.532;8.026;2023-08-24T05:46:57;19.60;99.90
21207;DHT22;10761;48.532;8.026;2023-08-24T05:49:22;19.60;99.90
21207;DHT22;10761;48.532;8.026;2023-08-24T05:51:51;19.50;99.90
21207;DHT22;10761;48.532;8.026;2023-08-24T05:54:17;19.40;99.90
21207;DHT22;10761;48.532;8.026;2023-08-24T05:56:44;19.30;99.90
21207;DHT22;10761;48.532;8.026;2023-08-24T05:59:10;19.20;99.90
21207;DHT22;10761;48.532;8.026;2023-08-24T06:01:36;19.10;99.90
21207;DHT22;10761;48.532;8.026;2023-08-24T06:04:05;19.10;99.90
21207;DHT22;10761;48.532;8.026;2023-08-24T06:06:31;19.20;99.90
21207;DHT22;10761;48.532;8.026;2023-08-24T06:08:57;19.40;99.90
21207;DHT22;10761;48.532;8.026;2023-08-24T06:11:22;19.50;99.90
21207;DHT22;10761;48.532;8.026;2023-08-24T06:13:48;19.60;99.90
21207;DHT22;10761;48.532;8.026;2023-08-24T06:16:14;19.60;99.90
21207;DHT22;10761;48.532;8.026;2023-08-24T06:18:39;19.60;99.90
21207;DHT22;10761;48.532;8.026;2023-08-24T06:21:05;19.60;99.90
21207;DHT22;10761;48.532;8.026;2023-08-24T06:23:30;19.60;99.90
21207;DHT22;10761;48.532;8.026;2023-08-24T06:25:56;19.60;99.90
21207;DHT22;10761;48.532;8.026;2023-08-24T06:28:21;19.60;99.90
21207;DHT22;10761;48.532;8.026;2023-08-24T06:30:47;19.70;99.90
21207;DHT22;10761;48.532;8.026;2023-08-24T06:33:13;19.80;99.90
21207;DHT22;10761;48.532;8.026;2023-08-24T06:35:38;20.00;99.90
21207;DHT22;10761;48.532;8.026;2023-08-24T06:38:04;20.20;99.90
21207;DHT22;10761;48.532;8.026;2023-08-24T06:40:30;20.50;99.90
21207;DHT22;10761;48.532;8.026;2023-08-24T06:42:56;20.80;99.90
21207;DHT22;10761;48.532;8.026;2023-08-24T06:45:22;21.10;99.90
21207;DHT22;10761;48.532;8.026;2023-08-24T06:47:48;21.50;99.90
21207;DHT22;10761;48.532;8.026;2023-08-24T06:50:14;21.90;1.00
21207;DHT22;10761;48.532;8.026;2023-08-24T06:52:41;22.10;1.00
21207;DHT22;10761;48.532;8.026;2023-08-24T06:55:08;22.20;1.00
21207;DHT22;10761;48.532;8.026;2023-08-24T06:57:34;22.20;1.00
21207;DHT22;10761;48.532;8.026;2023-08-24T06:59:59;22.30;1.00
21207;DHT22;10761;48.532;8.026;2023-08-24T07:02:25;22.50;1.00
21207;DHT22;10761;48.532;8.026;2023-08-24T07:04:51;22.60;1.00
21207;DHT22;10761;48.532;8.026;2023-08-24T07:07:17;23.00;1.00
21207;DHT22;10761;48.532;8.026;2023-08-24T07:09:42;23.30;99.90
21207;DHT22;10761;48.532;8.026;2023-08-24T07:12:09;23.80;99.90
21207;DHT22;10761;48.532;8.026;2023-08-24T07:14:38;24.20;1.00
21207;DHT22;10761;48.532;8.026;2023-08-24T07:17:05;24.60;1.00
21207;DHT22;10761;48.532;8.026;2023-08-24T07:19:31;25.10;99.90
21207;DHT22;10761;48.532;8.026;2023-08-24T07:21:57;25.40;99.90
21207;DHT22;10761;48.532;8.026;2023-08-24T07:24:22;25.90;1.00
21207;DHT22;10761;48.532;8.026;2023-08-24T07:26:52;26.10;99.90
21207;DHT22;10761;48.532;8.026;2023-08-24T07:29:18;26.40;1.00
21207;DHT22;10761;48.532;8.026;2023-08-24T07:31:43;26.60;1.00
21207;DHT22;10761;48.532;8.026;2023-08-24T07:34:09;26.70;1.00
21207;DHT22;10761;48.532;8.026;2023-08-24T07:36:34;27.10;99.90
21207;DHT22;10761;48.532;8.026;2023-08-24T07:39:00;27.30;1.00
21207;DHT22;10761;48.532;8.026;2023-08-24T07:41:25;27.40;1.00
21207;DHT22;10761;48.532;8.026;2023-08-24T07:43:51;27.30;1.00
21207;DHT22;10761;48.532;8.026;2023-08-24T07:46:17;27.10;1.00
21207;DHT22;10761;48.532;8.026;2023-08-24T07:48:42;26.50;1.00
21207;DHT22;10761;48.532;8.026;2023-08-24T07:51:08;26.20;99.90
21207;DHT22;10761;48.532;8.026;2023-08-24T07:53:34;26.10;1.00
21207;DHT22;10761;48.532;8.026;2023-08-24T07:56:00;26.30;1.00
21207;DHT22;10761;48.532;8.026;2023-08-24T07:58:26;26.10;1.00
21207;DHT22;10761;48.532;8.026;2023-08-24T08:00:52;26.30;1.00
21207;DHT22;10761;48.532;8.026;2023-08-24T08:03:19;26.60;99.90
21207;DHT22;10761;48.532;8.026;2023-08-24T08:05:45;26.10;1.00
21207;DHT22;10761;48.532;8.026;2023-08-24T08:08:11;25.90;99.90
21207;DHT22;10761;48.532;8.026;2023-08-24T08:10:37;26.00;1.00
21207;DHT22;10761;48.532;8.026;2023-08-24T08:13:03;26.20;1.00
21207;DHT22;10761;48.532;8.026;2023-08-24T08:15:28;26.30;1.00
21207;DHT22;10761;48.532;8.026;2023-08-24T08:17:54;26.30;99.90
21207;DHT22;10761;48.532;8.026;2023-08-24T08:20:19;26.80;1.00
21207;DHT22;10761;48.532;8.026;2023-08-24T08:22:45;27.10;99.90
21207;DHT22;10761;48.532;8.026;2023-08-24T08:25:10;27.30;1.00
21207;DHT22;10761;48.532;8.026;2023-08-24T08:27:37;26.90;1.00
21207;DHT22;10761;48.532;8.026;2023-08-24T08:30:04;26.90;99.90
21207;DHT22;10761;48.532;8.026;2023-08-24T08:32:30;27.00;99.90
21207;DHT22;10761;48.532;8.026;2023-08-24T08:34:56;27.30;99.90
21207;DHT22;10761;48.532;8.026;2023-08-24T08:37:27;27.60;1.00
21207;DHT22;10761;48.532;8.026;2023-08-24T08:39:52;27.80;1.00
21207;DHT22;10761;48.532;8.026;2023-08-24T08:42:18;28.20;99.90
21207;DHT22;10761;48.532;8.026;2023-08-24T08:44:45;28.50;99.90
21207;DHT22;10761;48.532;8.026;2023-08-24T08:47:11;28.50;1.00
21207;DHT22;10761;48.532;8.026;2023-08-24T08:49:39;28.60;1.00
21207;DHT22;10761;48.532;8.026;2023-08-24T08:52:05;28.60;1.00
21207;DHT22;10761;48.532;8.026;2023-08-24T08:54:31;28.70;1.00
21207;DHT22;10761;48.532;8.026;2023-08-24T08:56:59;28.70;1.00
21207;DHT22;10761;48.532;8.026;2023-08-24T08:59:27;28.50;1.00
21207;DHT22;10761;48.532;8.026;2023-08-24T09:01:55;28.30;1.00
21207;DHT22;10761;48.532;8.026;2023-08-24T09:04:22;28.70;1.00
21207;DHT22;10761;48.532;8.026;2023-08-24T09:06:48;29.00;1.00
21207;DHT22;10761;48.532;8.026;2023-08-24T09:09:14;28.80;1.00
21207;DHT22;10761;48.532;8.026;2023-08-24T09:11:41;29.10;1.00
21207;DHT22;10761;48.532;8.026;2023-08-24T09:14:07;29.40;1.00
21207;DHT22;10761;48.532;8.026;2023-08-24T09:16:33;29.70;1.00
21207;DHT22;10761;48.532;8.026;2023-08-24T09:18:58;29.40;99.90
21207;DHT22;10761;48.532;8.026;2023-08-24T09:21:24;29.20;99.90
21207;DHT22;10761;48.532;8.026;2023-08-24T09:23:54;29.20;99.90
21207;DHT22;10761;48.532;8.026;2023-08-24T09:26:30;29.40;99.90
21207;DHT22;10761;48.532;8.026;2023-08-24T09:28:56;29.60;99.90
21207;DHT22;10761;48.532;8.026;2023-08-24T09:31:23;29.50;99.90
21207;DHT22;10761;48.532;8.026;2023-08-24T09:33:49;29.60;99.90
21207;DHT22;10761;48.532;8.026;2023-08-24T09:36:15;29.80;1.00
21207;DHT22;10761;48.532;8.026;2023-08-24T09:38:47;30.40;99.90
21207;DHT22;10761;48.532;8.026;2023-08-24T09:41:14;30.60;59.60
21207;DHT22;10761;48.532;8.026;2023-08-24T09:43:40;30.70;1.00
21207;DHT22;10761;48.532;8.026;2023-08-24T09:46:05;30.40;1.00
21207;DHT22;10761;48.532;8.026;2023-08-24T09:48:33;30.30;31.70
21207;DHT22;10761;48.532;8.026;2023-08-24T09:51:03;30.40;14.50
21207;DHT22;10761;48.532;8.026;2023-08-24T09:53:32;30.70;1.00
21207;DHT22;10761;48.532;8.026;2023-08-24T09:56:01;31.00;1.00
21207;DHT22;10761;48.532;8.026;2023-08-24T09:58:28;31.20;1.00
21207;DHT22;10761;48.532;8.026;2023-08-24T10:00:55;31.30;1.00
21207;DHT22;10761;48.532;8.026;2023-08-24T10:03:24;31.40;1.00
21207;DHT22;10761;48.532;8.026;2023-08-24T10:05:55;31.40;1.00
21207;DHT22;10761;48.532;8.026;2023-08-24T10:08:34;31.50;1.00
21207;DHT22;10761;48.532;8.026;2023-08-24T10:11:01;30.90;1.00
21207;DHT22;10761;48.532;8.026;2023-08-24T10:15:57;30.40;1.00
21207;DHT22;10761;48.532;8.026;2023-08-24T10:18:25;30.20;1.00
21207;DHT22;10761;48.532;8.026;2023-08-24T10:20:52;29.70;1.00
21207;DHT22;10761;48.532;8.026;2023-08-24T10:23:19;29.60;58.40
21207;DHT22;10761;48.532;8.026;2023-08-24T10:25:46;29.80;89.30
21207;DHT22;10761;48.532;8.026;2023-08-24T10:28:12;30.00;99.90
21207;DHT22;10761;48.532;8.026;2023-08-24T10:30:39;30.30;99.90
21207;DHT22;10761;48.532;8.026;2023-08-24T10:33:05;30.90;6.80
21207;DHT22;10761;48.532;8.026;2023-08-24T10:35:32;31.30;22.90
21207;DHT22;10761;48.532;8.026;2023-08-24T10:37:59;31.70;1.00
21207;DHT22;10761;48.532;8.026;2023-08-24T10:40:33;31.90;1.00
21207;DHT22;10761;48.532;8.026;2023-08-24T10:43:02;32.30;1.00
21207;DHT22;10761;48.532;8.026;2023-08-24T10:48:28;32.10;1.00
21207;DHT22;10761;48.532;8.026;2023-08-24T10:53:44;32.00;1.00
21207;DHT22;10761;48.532;8.026;2023-08-24T10:56:13;31.90;1.00
21207;DHT22;10761;48.532;8.026;2023-08-24T10:58:40;31.90;1.00
21207;DHT22;10761;48.532;8.026;2023-08-24T11:01:06;31.90;1.00
21207;DHT22;10761;48.532;8.026;2023-08-24T11:03:32;32.00;1.00
21207;DHT22;10761;48.532;8.026;2023-08-24T11:06:01;32.40;1.00
21207;DHT22;10761;48.532;8.026;2023-08-24T11:08:45;32.30;1.00
21207;DHT22;10761;48.532;8.026;2023-08-24T11:11:21;32.50;1.00
21207;DHT22;10761;48.532;8.026;2023-08-24T11:14:18;32.40;1.00
21207;DHT22;10761;48.532;8.026;2023-08-24T11:17:00;32.30;1.00
21207;DHT22;10761;48.532;8.026;2023-08-24T11:19:27;32.40;1.00
21207;DHT22;10761;48.532;8.026;2023-08-24T11:21:53;32.60;1.00
21207;DHT22;10761;48.532;8.026;2023-08-24T11:24:19;32.00;1.00
21207;DHT22;10761;48.532;8.026;2023-08-24T11:26:46;31.70;1.00
21207;DHT22;10761;48.532;8.026;2023-08-24T11:29:12;31.90;1.00
21207;DHT22;10761;48.532;8.026;2023-08-24T11:31:38;32.40;1.00
21207;DHT22;10761;48.532;8.026;2023-08-24T11:34:05;33.00;1.00
21207;DHT22;10761;48.532;8.026;2023-08-24T11:36:41;32.80;1.00
21207;DHT22;10761;48.532;8.026;2023-08-24T11:39:20;32.80;1.00
21207;DHT22;10761;48.532;8.026;2023-08-24T11:42:06;33.00;1.00
21207;DHT22;10761;48.532;8.026;2023-08-24T11:44:48;33.30;1.00
21207;DHT22;10761;48.532;8.026;2023-08-24T11:47:14;33.60;1.00
21207;DHT22;10761;48.532;8.026;2023-08-24T11:49:41;33.80;1.00
21207;DHT22;10761;48.532;8.026;2023-08-24T11:52:06;34.00;1.00
21207;DHT22;10761;48.532;8.026;2023-08-24T11:54:32;33.60;1.00
21207;DHT22;10761;48.532;8.026;2023-08-24T11:56:58;33.70;1.00
21207;DHT22;10761;48.532;8.026;2023-08-24T11:59:24;33.70;1.00
21207;DHT22;10761;48.532;8.026;2023-08-24T12:01:51;33.60;1.00
21207;DHT22;10761;48.532;8.026;2023-08-24T12:04:18;33.20;1.00
21207;DHT22;10761;48.532;8.026;2023-08-24T12:06:43;33.20;1.00
21207;DHT22;10761;48.532;8.026;2023-08-24T12:09:09;33.60;1.00
21207;DHT22;10761;48.532;8.026;2023-08-24T12:11:36;33.60;1.00
21207;DHT22;10761;48.532;8.026;2023-08-24T12:14:02;33.60;1.00
21207;DHT22;10761;48.532;8.026;2023-08-24T12:16:32;33.20;1.00
21207;DHT22;10761;48.532;8.026;2023-08-24T12:18:59;33.30;1.00
21207;DHT22;10761;48.532;8.026;2023-08-24T12:21:28;33.60;1.00
21207;DHT22;10761;48.532;8.026;2023-08-24T12:24:02;34.10;1.00
21207;DHT22;10761;48.532;8.026;2023-08-24T12:26:34;34.60;1.00
21207;DHT22;10761;48.532;8.026;2023-08-24T12:29:03;34.40;1.00
21207;DHT22;10761;48.532;8.026;2023-08-24T12:31:29;34.20;1.00
21207;DHT22;10761;48.532;8.026;2023-08-24T12:34:06;33.60;1.00
21207;DHT22;10761;48.532;8.026;2023-08-24T12:36:32;33.30;1.00
21207;DHT22;10761;48.532;8.026;2023-08-24T12:38:58;33.00;1.00
21207;DHT22;10761;48.532;8.026;2023-08-24T12:41:24;32.80;1.00
21207;DHT22;10761;48.532;8.026;2023-08-24T12:43:50;32.60;1.00
21207;DHT22;10761;48.532;8.026;2023-08-24T12:46:17;32.90;1.00
21207;DHT22;10761;48.532;8.026;2023-08-24T12:48:42;33.40;1.00
21207;DHT22;10761;48.532;8.026;2023-08-24T12:51:08;33.60;1.00
21207;DHT22;10761;48.532;8.026;2023-08-24T12:53:34;34.20;1.00
21207;DHT22;10761;48.532;8.026;2023-08-24T12:55:59;34.30;1.00
21207;DHT22;10761;48.532;8.026;2023-08-24T12:58:25;34.60;1.00
21207;DHT22;10761;48.532;8.026;2023-08-24T13:00:50;34.30;1.00
21207;DHT22;10761;48.532;8.026;2023-08-24T13:03:16;34.60;1.00
21207;DHT22;10761;48.532;8.026;2023-08-24T13:05:42;34.70;99.90
21207;DHT22;10761;48.532;8.026;2023-08-24T13:08:07;34.30;99.90
21207;DHT22;10761;48.532;8.026;2023-08-24T13:10:33;34.00;99.90
21207;DHT22;10761;48.532;8.026;2023-08-24T13:12:59;33.30;1.00
21207;DHT22;10761;48.532;8.026;2023-08-24T13:15:24;33.00;1.00
21207;DHT22;10761;48.532;8.026;2023-08-24T13:17:50;33.00;1.00
21207;DHT22;10761;48.532;8.026;2023-08-24T13:20:16;33.10;1.00
21207;DHT22;10761;48.532;8.026;2023-08-24T13:22:41;33.30;1.00
21207;DHT22;10761;48.532;8.026;2023-08-24T13:25:07;33.30;1.00
21207;DHT22;10761;48.532;8.026;2023-08-24T13:27:33;33.20;1.00
21207;DHT22;10761;48.532;8.026;2023-08-24T13:30:02;32.90;1.00
21207;DHT22;10761;48.532;8.026;2023-08-24T13:32:28;32.80;1.00
21207;DHT22;10761;48.532;8.026;2023-08-24T13:34:54;32.40;1.00
21207;DHT22;10761;48.532;8.026;2023-08-24T13:37:21;32.20;1.00
21207;DHT22;10761;48.532;8.026;2023-08-24T13:39:47;32.10;1.00
21207;DHT22;10761;48.532;8.026;2023-08-24T13:42:13;31.80;1.00
21207;DHT22;10761;48.532;8.026;2023-08-24T13:44:39;31.70;1.00
21207;DHT22;10761;48.532;8.026;2023-08-24T13:47:04;31.60;1.00
21207;DHT22;10761;48.532;8.026;2023-08-24T13:49:30;31.50;1.00
21207;DHT22;10761;48.532;8.026;2023-08-24T13:51:55;31.40;1.00
21207;DHT22;10761;48.532;8.026;2023-08-24T13:54:21;31.40;1.00
21207;DHT22;10761;48.532;8.026;2023-08-24T13:56:48;31.30;99.90
21207;DHT22;10761;48.532;8.026;2023-08-24T13:59:14;31.20;1.00
21207;DHT22;10761;48.532;8.026;2023-08-24T14:01:41;31.10;99.90
21207;DHT22;10761;48.532;8.026;2023-08-24T14:04:07;31.00;30.90
21207;DHT22;10761;48.532;8.026;2023-08-24T14:06:33;30.80;1.00
21207;DHT22;10761;48.532;8.026;2023-08-24T14:09:05;30.50;99.90
21207;DHT22;10761;48.532;8.026;2023-08-24T14:11:32;30.30;57.40
21207;DHT22;10761;48.532;8.026;2023-08-24T14:13:58;30.20;1.00
21207;DHT22;10761;48.532;8.026;2023-08-24T14:16:25;30.00;1.00
21207;DHT22;10761;48.532;8.026;2023-08-24T14:18:52;29.90;1.00
21207;DHT22;10761;48.532;8.026;2023-08-24T14:21:17;29.80;1.00
21207;DHT22;10761;48.532;8.026;2023-08-24T14:23:43;29.70;1.00
21207;DHT22;10761;48.532;8.026;2023-08-24T14:26:09;29.30;1.00
21207;DHT22;10761;48.532;8.026;2023-08-24T14:28:51;29.00;1.00
21207;DHT22;10761;48.532;8.026;2023-08-24T14:31:19;28.80;1.00
21207;DHT22;10761;48.532;8.026;2023-08-24T14:33:45;28.40;99.90
21207;DHT22;10761;48.532;8.026;2023-08-24T14:36:11;28.30;1.00
21207;DHT22;10761;48.532;8.026;2023-08-24T14:38:41;28.10;99.90
21207;DHT22;10761;48.532;8.026;2023-08-24T14:41:11;28.10;1.00
21207;DHT22;10761;48.532;8.026;2023-08-24T14:43:37;28.00;1.00
21207;DHT22;10761;48.532;8.026;2023-08-24T14:46:03;27.90;1.00
21207;DHT22;10761;48.532;8.026;2023-08-24T14:48:29;27.80;1.00
21207;DHT22;10761;48.532;8.026;2023-08-24T14:50:56;27.70;99.90
21207;DHT22;10761;48.532;8.026;2023-08-24T14:53:22;27.60;1.00
21207;DHT22;10761;48.532;8.026;2023-08-24T14:55:48;27.60;1.00
21207;DHT22;10761;48.532;8.026;2023-08-24T14:58:14;27.60;1.00
21207;DHT22;10761;48.532;8.026;2023-08-24T15:00:40;27.60;99.90
21207;DHT22;10761;48.532;8.026;2023-08-24T15:03:05;27.60;1.00
21207;DHT22;10761;48.532;8.026;2023-08-24T15:05:36;27.70;1.00
21207;DHT22;10761;48.532;8.026;2023-08-24T15:08:02;27.80;31.70
21207;DHT22;10761;48.532;8.026;2023-08-24T15:10:28;27.90;1.00
21207;DHT22;10761;48.532;8.026;2023-08-24T15:12:53;28.00;1.00
21207;DHT22;10761;48.532;8.026;2023-08-24T15:15:19;28.40;1.00
21207;DHT22;10761;48.532;8.026;2023-08-24T15:17:45;28.90;1.00
21207;DHT22;10761;48.532;8.026;2023-08-24T15:20:10;29.70;99.90
21207;DHT22;10761;48.532;8.026;2023-08-24T15:22:38;30.50;99.90
21207;DHT22;10761;48.532;8.026;2023-08-24T15:25:05;31.00;1.00
21207;DHT22;10761;48.532;8.026;2023-08-24T15:27:31;31.50;1.00
21207;DHT22;10761;48.532;8.026;2023-08-24T15:29:56;31.50;1.00
21207;DHT22;10761;48.532;8.026;2023-08-24T15:32:22;31.30;1.00
21207;DHT22;10761;48.532;8.026;2023-08-24T15:34:48;31.50;1.00
21207;DHT22;10761;48.532;8.026;2023-08-24T15:37:14;31.60;99.90
21207;DHT22;10761;48.532;8.026;2023-08-24T15:39:40;31.50;99.90
21207;DHT22;10761;48.532;8.026;2023-08-24T15:42:06;31.30;99.90
21207;DHT22;10761;48.532;8.026;2023-08-24T15:44:33;31.10;1.00
21207;DHT22;10761;48.532;8.026;2023-08-24T15:46:59;30.70;1.00
21207;DHT22;10761;48.532;8.026;2023-08-24T15:49:25;30.40;1.00